Time;durP1;ratioP1;P1;durP2;ratioP2;P2;SDS_P1;SDS_P2;PMS_P1;PMS_P2;Temp;Humidity;BMP_temperature;BMP_pressure;BME280_temperature;BME280_humidity;BME280_pressure;Samples;Min_cycle;Max_cycle;Signal;HPM_P1;HPM_P2
2023/09/18 00:00:44;;;;;;;0.00;0.00;;;17.30;90.00;;;;;;5030060;28;20136;-67
2023/09/18 00:03:10;;;;;;;0.00;0.00;;;17.30;90.10;;;;;;5030175;28;20136;-66
2023/09/18 00:05:35;;;;;;;0.00;0.00;;;17.20;90.00;;;;;;5060366;28;20424;-67
2023/09/18 00:08:04;;;;;;;0.00;0.00;;;17.20;90.00;;;;;;5038851;28;20589;-66
2023/09/18 00:10:30;;;;;;;0.00;0.00;;;17.30;90.00;;;;;;5030482;28;20171;-67
2023/09/18 00:12:56;;;;;;;0.00;0.00;;;17.20;90.00;;;;;;5030347;28;20105;-66
2023/09/18 00:15:22;;;;;;;0.00;0.00;;;17.20;90.00;;;;;;5041492;28;20052;-67
2023/09/18 00:17:47;;;;;;;0.00;0.00;;;17.20;90.00;;;;;;5050297;28;20056;-67
2023/09/18 00:20:13;;;;;;;0.00;0.00;;;17.20;90.00;;;;;;5051409;28;20520;-66
2023/09/18 00:22:39;;;;;;;0.00;0.00;;;17.20;90.10;;;;;;5066718;28;20053;-66
2023/09/18 00:25:05;;;;;;;0.10;0.10;;;17.20;90.10;;;;;;5050464;28;20553;-66
2023/09/18 00:27:32;;;;;;;0.00;0.00;;;17.20;90.10;;;;;;5038836;28;20041;-67
2023/09/18 00:29:57;;;;;;;0.00;0.00;;;17.30;90.20;;;;;;5046676;28;20070;-68
2023/09/18 00:32:23;;;;;;;0.00;0.00;;;17.20;90.20;;;;;;5032272;28;20075;-67
2023/09/18 00:34:48;;;;;;;0.00;0.00;;;17.20;90.20;;;;;;5051140;28;20082;-66
2023/09/18 00:37:14;;;;;;;0.00;0.00;;;17.30;90.30;;;;;;5049224;28;20136;-66
2023/09/18 00:39:41;;;;;;;0.00;0.00;;;17.30;90.30;;;;;;5066711;28;20073;-66
2023/09/18 00:42:06;;;;;;;0.00;0.00;;;17.30;90.30;;;;;;5050675;28;20413;-67
2023/09/18 00:44:32;;;;;;;0.00;0.00;;;17.30;90.30;;;;;;5050867;28;20037;-66
2023/09/18 00:46:58;;;;;;;0.00;0.00;;;17.30;90.30;;;;;;5049156;28;20431;-66
2023/09/18 00:49:24;;;;;;;0.00;0.00;;;17.30;90.30;;;;;;5051018;28;20041;-66
2023/09/18 00:51:50;;;;;;;0.00;0.00;;;17.30;90.30;;;;;;5049518;28;20128;-66
2023/09/18 00:54:19;;;;;;;0.00;0.00;;;17.30;90.40;;;;;;5050190;28;20088;-66
2023/09/18 00:56:46;;;;;;;0.00;0.00;;;17.30;90.30;;;;;;5050080;28;20132;-66
2023/09/18 00:59:13;;;;;;;0.00;0.00;;;17.30;90.30;;;;;;5066607;28;20041;-65
2023/09/18 01:01:41;;;;;;;0.00;0.00;;;17.30;90.40;;;;;;5035328;28;20073;-66
2023/09/18 01:04:07;;;;;;;0.00;0.00;;;17.30;90.40;;;;;;5029720;28;20053;-66
2023/09/18 01:06:33;;;;;;;0.00;0.00;;;17.30;90.40;;;;;;5051241;28;20517;-66
2023/09/18 01:08:59;;;;;;;0.00;0.00;;;17.30;90.40;;;;;;5066459;28;20049;-65
2023/09/18 01:11:44;;;;;;;0.00;0.00;;;17.30;90.40;;;;;;5066481;28;20057;-66
2023/09/18 01:14:33;;;;;;;0.00;0.00;;;17.30;90.40;;;;;;5058181;28;20045;-65
2023/09/18 01:17:04;;;;;;;0.17;0.17;;;17.30;90.50;;;;;;5036590;28;20469;-65
2023/09/18 01:19:45;;;;;;;0.00;0.00;;;17.30;90.40;;;;;;5054532;28;20582;-65
2023/09/18 01:22:11;;;;;;;;;;;17.30;90.40;;;;;;5053235;28;20051;-65
2023/09/18 01:24:38;;;;;;;0.00;0.00;;;17.30;90.40;;;;;;5054204;28;20049;-65
2023/09/18 01:27:05;;;;;;;0.00;0.00;;;17.30;90.50;;;;;;5053306;28;20123;-65
2023/09/18 01:29:31;;;;;;;0.00;0.00;;;17.30;90.40;;;;;;5053832;28;20505;-66
2023/09/18 01:31:58;;;;;;;0.00;0.00;;;17.30;90.40;;;;;;5054256;28;20517;-66
2023/09/18 01:34:41;;;;;;;0.00;0.00;;;17.30;90.50;;;;;;5069883;28;20104;-66
2023/09/18 01:37:08;;;;;;;0.00;0.00;;;17.30;90.40;;;;;;5050608;28;20132;-66
2023/09/18 01:39:35;;;;;;;0.00;0.00;;;17.30;90.50;;;;;;5051893;28;20123;-66
2023/09/18 01:42:05;;;;;;;0.00;0.00;;;17.30;90.50;;;;;;5052979;28;20063;-65
2023/09/18 01:44:31;;;;;;;0.00;0.00;;;17.30;90.50;;;;;;5037778;28;20534;-65
2023/09/18 01:46:59;;;;;;;0.00;0.00;;;17.30;90.50;;;;;;5042085;28;20076;-65
2023/09/18 01:49:39;;;;;;;0.00;0.00;;;17.30;90.50;;;;;;5052786;28;20135;-66
2023/09/18 01:52:06;;;;;;;0.00;0.00;;;17.30;90.50;;;;;;5068467;28;20445;-66
2023/09/18 01:54:32;;;;;;;0.00;0.00;;;17.30;90.50;;;;;;5050753;28;20123;-66
2023/09/18 01:56:58;;;;;;;0.00;0.00;;;17.30;90.60;;;;;;5052567;28;20092;-66
2023/09/18 01:59:24;;;;;;;0.00;0.00;;;17.30;90.60;;;;;;5069127;28;20088;-66
2023/09/18 02:01:51;;;;;;;0.00;0.00;;;17.20;90.50;;;;;;5052488;28;20053;-65
2023/09/18 02:04:18;;;;;;;0.00;0.00;;;17.30;90.60;;;;;;5069196;28;20049;-65
2023/09/18 02:06:44;;;;;;;0.00;0.00;;;17.30;90.60;;;;;;5067330;28;20048;-67
2023/09/18 02:09:10;;;;;;;0.00;0.00;;;17.30;90.60;;;;;;5052611;28;20106;-66
2023/09/18 02:11:40;;;;;;;0.00;0.00;;;17.30;90.60;;;;;;5052220;28;20048;-65
2023/09/18 02:14:07;;;;;;;0.00;0.00;;;17.30;90.70;;;;;;5067431;28;20076;-66
2023/09/18 02:16:37;;;;;;;0.00;0.00;;;17.30;90.70;;;;;;5066409;28;20517;-66
2023/09/18 02:19:04;;;;;;;0.00;0.00;;;17.30;90.60;;;;;;5048697;28;20056;-65
2023/09/18 02:21:30;;;;;;;0.00;0.00;;;17.30;90.60;;;;;;5051836;28;20288;-67
2023/09/18 02:23:56;;;;;;;0.00;0.00;;;17.40;90.70;;;;;;5051875;28;20178;-65
2023/09/18 02:26:24;;;;;;;0.00;0.00;;;17.30;90.80;;;;;;5035607;28;20137;-66
2023/09/18 02:28:51;;;;;;;0.00;0.00;;;17.40;90.80;;;;;;5052076;28;20384;-65
2023/09/18 02:31:17;;;;;;;0.00;0.00;;;17.30;90.80;;;;;;5051233;28;20045;-65
2023/09/18 02:33:43;;;;;;;0.00;0.00;;;17.40;90.90;;;;;;5065297;28;20047;-66
2023/09/18 02:36:08;;;;;;;0.00;0.00;;;17.30;90.90;;;;;;5064182;28;20080;-66
2023/09/18 02:38:34;;;;;;;0.00;0.00;;;17.30;90.90;;;;;;5052759;28;20045;-66
2023/09/18 02:41:00;;;;;;;0.00;0.00;;;17.30;90.90;;;;;;5051414;28;20055;-66
2023/09/18 02:43:26;;;;;;;0.00;0.00;;;17.40;91.00;;;;;;5059327;28;20521;-67
2023/09/18 02:45:52;;;;;;;0.47;0.47;;;17.40;91.00;;;;;;5032580;28;20150;-66
2023/09/18 02:48:18;;;;;;;0.00;0.00;;;17.40;90.90;;;;;;5037451;28;20498;-66
2023/09/18 02:50:44;;;;;;;0.00;0.00;;;17.40;90.90;;;;;;5050490;28;20147;-66
2023/09/18 02:53:37;;;;;;;0.00;0.00;;;17.40;91.20;;;;;;5055982;28;20040;-66
2023/09/18 02:56:02;;;;;;;0.45;0.45;;;17.40;91.20;;;;;;5048035;28;20049;-66
2023/09/18 02:58:30;;;;;;;0.00;0.00;;;17.40;91.10;;;;;;5052384;28;20095;-66
2023/09/18 03:00:59;;;;;;;0.00;0.00;;;17.40;91.20;;;;;;5052313;28;20071;-66
2023/09/18 03:03:26;;;;;;;0.00;0.00;;;17.40;91.20;;;;;;5049559;28;20067;-66
2023/09/18 03:05:52;;;;;;;0.00;0.00;;;17.50;91.30;;;;;;5064859;28;20045;-66
2023/09/18 03:08:17;;;;;;;0.00;0.00;;;17.50;91.40;;;;;;5032289;28;20071;-66
2023/09/18 03:10:43;;;;;;;0.00;0.00;;;17.40;91.30;;;;;;5037939;28;20045;-66
2023/09/18 03:13:10;;;;;;;0.00;0.00;;;17.40;91.40;;;;;;5063685;28;20569;-65
2023/09/18 03:15:37;;;;;;;0.00;0.00;;;17.40;91.40;;;;;;5069433;28;20080;-66
2023/09/18 03:18:04;;;;;;;0.00;0.00;;;17.50;91.30;;;;;;5049547;28;20506;-65
2023/09/18 03:20:30;;;;;;;0.10;0.10;;;17.50;91.40;;;;;;5048137;28;20109;-66
2023/09/18 03:23:01;;;;;;;0.00;0.00;;;17.40;91.30;;;;;;5051999;28;20045;-65
2023/09/18 03:25:27;;;;;;;0.00;0.00;;;17.50;91.30;;;;;;5066936;28;20190;-66
2023/09/18 03:27:55;;;;;;;0.00;0.00;;;17.50;91.30;;;;;;5051899;28;20143;-66
2023/09/18 03:30:23;;;;;;;0.00;0.00;;;17.50;91.30;;;;;;5066423;28;20506;-65
2023/09/18 03:32:49;;;;;;;0.00;0.00;;;17.50;91.50;;;;;;5075722;28;20114;-65
2023/09/18 03:35:18;;;;;;;0.10;0.10;;;17.50;91.80;;;;;;5055861;28;20559;-67
2023/09/18 03:37:47;;;;;;;0.00;0.00;;;17.50;91.70;;;;;;5059082;28;20111;-65
2023/09/18 03:40:13;;;;;;;0.00;0.00;;;17.50;91.60;;;;;;5043209;28;20260;-66
2023/09/18 03:42:39;;;;;;;0.00;0.00;;;17.60;91.60;;;;;;5031777;28;20041;-65
2023/09/18 03:45:06;;;;;;;0.00;0.00;;;17.60;91.50;;;;;;5047166;28;20056;-65
2023/09/18 03:47:33;;;;;;;0.00;0.00;;;17.60;91.50;;;;;;5049784;28;20056;-66
2023/09/18 03:49:59;;;;;;;0.77;0.22;;;17.60;91.40;;;;;;5049458;28;20041;-66
2023/09/18 03:52:24;;;;;;;1.75;1.10;;;17.60;91.80;;;;;;5051541;28;20052;-65
2023/09/18 03:54:51;;;;;;;0.00;0.00;;;17.60;91.80;;;;;;5050574;28;20055;-67
2023/09/18 03:57:17;;;;;;;0.30;0.20;;;17.60;91.90;;;;;;5051307;28;20057;-67
2023/09/18 03:59:43;;;;;;;0.30;0.30;;;17.60;91.90;;;;;;5055339;28;20464;-67
2023/09/18 04:02:08;;;;;;;0.00;0.00;;;17.60;91.90;;;;;;5064758;28;20110;-67
2023/09/18 04:04:34;;;;;;;0.43;0.43;;;17.60;91.90;;;;;;5055212;28;20055;-67
2023/09/18 04:06:59;;;;;;;0.13;0.13;;;17.60;91.90;;;;;;5048355;28;20069;-67
2023/09/18 04:09:25;;;;;;;0.00;0.00;;;17.60;91.90;;;;;;5040902;28;20049;-67
2023/09/18 04:11:51;;;;;;;0.10;0.10;;;17.60;91.80;;;;;;5048557;28;20539;-67
2023/09/18 04:14:17;;;;;;;0.00;0.00;;;17.60;91.90;;;;;;5066731;28;20099;-67
2023/09/18 04:16:43;;;;;;;0.00;0.00;;;17.60;91.80;;;;;;5050687;28;20044;-67
2023/09/18 04:19:09;;;;;;;0.00;0.00;;;17.60;91.80;;;;;;5053833;28;20046;-67
2023/09/18 04:21:35;;;;;;;0.00;0.00;;;17.70;91.90;;;;;;5066911;28;20128;-67
2023/09/18 04:24:01;;;;;;;0.00;0.00;;;17.60;91.80;;;;;;5066868;28;20053;-67
2023/09/18 04:26:30;;;;;;;0.52;0.25;;;17.70;91.70;;;;;;5051331;28;20107;-67
2023/09/18 04:28:57;;;;;;;0.00;0.00;;;17.70;91.80;;;;;;5059327;28;20261;-67
2023/09/18 04:31:22;;;;;;;0.00;0.00;;;17.70;91.90;;;;;;5030104;28;20054;-67
2023/09/18 04:33:48;;;;;;;0.00;0.00;;;17.70;91.80;;;;;;5030387;28;20394;-67
2023/09/18 04:36:14;;;;;;;0.00;0.00;;;17.70;91.90;;;;;;5032418;28;20049;-68
2023/09/18 04:38:39;;;;;;;0.00;0.00;;;17.70;91.80;;;;;;5038920;28;20056;-67
2023/09/18 04:41:07;;;;;;;0.00;0.00;;;17.70;91.90;;;;;;5057816;28;20128;-68
2023/09/18 04:43:34;;;;;;;0.00;0.00;;;17.70;92.00;;;;;;5029974;28;20139;-68
2023/09/18 04:46:02;;;;;;;0.00;0.00;;;17.80;92.10;;;;;;5030365;28;20060;-68
2023/09/18 04:48:27;;;;;;;0.00;0.00;;;17.80;92.20;;;;;;5031406;28;20085;-68
2023/09/18 04:50:53;;;;;;;0.00;0.00;;;17.80;92.20;;;;;;5048177;28;20075;-68
2023/09/18 04:53:18;;;;;;;0.00;0.00;;;17.80;92.10;;;;;;5064900;28;20556;-68
2023/09/18 04:55:49;;;;;;;0.00;0.00;;;17.80;92.10;;;;;;5063613;28;20047;-67
2023/09/18 04:58:15;;;;;;;0.00;0.00;;;17.70;92.00;;;;;;5070096;28;20092;-67
2023/09/18 05:00:41;;;;;;;0.00;0.00;;;17.80;92.10;;;;;;5045725;28;20041;-67
2023/09/18 05:03:08;;;;;;;0.00;0.00;;;17.80;92.10;;;;;;5062427;28;20045;-67
2023/09/18 05:05:34;;;;;;;0.00;0.00;;;17.80;92.10;;;;;;5051845;28;20087;-67
2023/09/18 05:08:02;;;;;;;0.00;0.00;;;17.80;92.10;;;;;;5050425;28;20068;-66
2023/09/18 05:10:28;;;;;;;0.00;0.00;;;17.80;92.10;;;;;;5049181;28;20541;-67
2023/09/18 05:12:58;;;;;;;0.00;0.00;;;17.80;92.20;;;;;;5051286;28;20053;-67
2023/09/18 05:15:35;;;;;;;0.00;0.00;;;17.80;92.20;;;;;;5051790;28;20061;-68
2023/09/18 05:18:01;;;;;;;0.00;0.00;;;17.80;92.10;;;;;;5068601;28;20114;-67
2023/09/18 05:20:28;;;;;;;0.00;0.00;;;17.90;92.10;;;;;;5050065;28;20063;-67
2023/09/18 05:22:56;;;;;;;0.00;0.00;;;17.90;92.20;;;;;;5053349;28;20397;-67
2023/09/18 05:25:22;;;;;;;0.00;0.00;;;17.80;92.10;;;;;;5060274;28;20056;-69
2023/09/18 05:27:55;;;;;;;0.00;0.00;;;17.90;92.10;;;;;;5046728;28;20433;-67
2023/09/18 05:30:29;;;;;;;0.00;0.00;;;17.90;92.20;;;;;;5067837;28;20120;-68
2023/09/18 05:33:04;;;;;;;0.10;0.10;;;17.90;92.20;;;;;;5065626;28;20041;-69
2023/09/18 05:35:36;;;;;;;0.00;0.00;;;18.00;92.40;;;;;;5065949;28;20037;-67
2023/09/18 05:38:03;;;;;;;0.00;0.00;;;18.00;92.70;;;;;;5047917;28;20572;-66
2023/09/18 05:40:29;;;;;;;0.00;0.00;;;18.00;92.70;;;;;;5067512;28;20057;-66
2023/09/18 05:42:56;;;;;;;0.00;0.00;;;18.00;92.60;;;;;;5045816;28;20052;-65
2023/09/18 05:45:22;;;;;;;0.10;0.10;;;18.10;92.60;;;;;;5065149;28;20060;-66
2023/09/18 05:47:49;;;;;;;0.10;0.10;;;18.10;92.60;;;;;;5068296;28;20049;-65
2023/09/18 05:50:16;;;;;;;0.30;0.30;;;18.10;92.50;;;;;;5061397;28;20494;-66
2023/09/18 05:52:49;;;;;;;0.00;0.00;;;18.20;92.60;;;;;;5063499;28;20131;-66
2023/09/18 05:55:15;;;;;;;0.17;0.17;;;18.30;92.60;;;;;;5050973;28;20529;-66
2023/09/18 05:57:41;;;;;;;0.00;0.00;;;18.30;92.80;;;;;;5066362;28;20075;-67
2023/09/18 06:00:08;;;;;;;0.00;0.00;;;18.30;92.70;;;;;;5051269;28;20620;-67
2023/09/18 06:02:33;;;;;;;0.00;0.00;;;18.40;92.70;;;;;;5066003;28;20045;-67
2023/09/18 06:05:00;;;;;;;0.00;0.00;;;18.40;92.60;;;;;;5052680;28;20441;-66
2023/09/18 06:07:27;;;;;;;0.20;0.20;;;18.50;92.60;;;;;;5047773;28;20090;-66
2023/09/18 06:09:53;;;;;;;0.52;0.52;;;18.50;92.40;;;;;;5046939;28;20503;-66
2023/09/18 06:12:18;;;;;;;0.10;0.10;;;18.50;92.30;;;;;;5067017;28;20431;-65
2023/09/18 06:14:46;;;;;;;0.00;0.00;;;18.50;92.40;;;;;;5051855;28;20049;-67
2023/09/18 06:17:12;;;;;;;0.00;0.00;;;18.60;92.30;;;;;;5051307;28;20045;-68
2023/09/18 06:19:37;;;;;;;0.57;0.57;;;18.60;92.40;;;;;;5050978;28;20080;-67
2023/09/18 06:22:03;;;;;;;0.08;0.08;;;18.60;92.60;;;;;;5051770;28;20044;-67
2023/09/18 06:24:29;;;;;;;0.05;0.05;;;18.60;92.50;;;;;;5050356;28;20053;-67
2023/09/18 06:26:54;;;;;;;0.00;0.00;;;18.60;92.70;;;;;;5051933;28;20052;-68
2023/09/18 06:29:20;;;;;;;0.15;0.15;;;18.60;92.70;;;;;;5054283;28;20516;-68
2023/09/18 06:31:46;;;;;;;0.00;0.00;;;18.70;93.10;;;;;;5052978;28;20131;-67
2023/09/18 06:34:12;;;;;;;0.00;0.00;;;18.70;92.80;;;;;;5054506;28;20411;-67
2023/09/18 06:36:37;;;;;;;0.00;0.00;;;18.70;92.80;;;;;;5045288;28;20048;-66
2023/09/18 06:39:03;;;;;;;0.00;0.00;;;18.70;92.90;;;;;;5040883;28;20456;-68
2023/09/18 06:41:29;;;;;;;0.00;0.00;;;18.70;92.80;;;;;;5043761;28;20045;-66
2023/09/18 06:43:54;;;;;;;0.00;0.00;;;18.70;92.60;;;;;;5044439;28;20478;-66
2023/09/18 06:46:20;;;;;;;0.00;0.00;;;18.80;92.60;;;;;;5045621;28;20048;-66
2023/09/18 06:48:49;;;;;;;0.10;0.10;;;18.70;92.30;;;;;;5047471;28;20139;-66
2023/09/18 06:51:15;;;;;;;0.00;0.00;;;18.70;92.20;;;;;;5048301;28;20045;-65
2023/09/18 06:53:41;;;;;;;0.00;0.00;;;18.60;92.10;;;;;;5063109;28;20033;-66
2023/09/18 06:56:06;;;;;;;0.00;0.00;;;18.60;92.20;;;;;;5042984;28;20061;-66
2023/09/18 06:58:32;;;;;;;0.00;0.00;;;18.50;92.20;;;;;;5047876;28;20102;-66
2023/09/18 07:00:57;;;;;;;0.00;0.00;;;18.60;92.20;;;;;;5040698;28;20458;-67
2023/09/18 07:03:23;;;;;;;0.00;0.00;;;18.50;92.30;;;;;;5037258;28;20387;-67
2023/09/18 07:05:49;;;;;;;0.00;0.00;;;18.40;92.70;;;;;;5049395;28;20051;-66
2023/09/18 07:08:19;;;;;;;0.00;0.00;;;18.50;92.70;;;;;;5047276;28;20051;-66
2023/09/18 07:10:45;;;;;;;0.00;0.00;;;18.40;92.80;;;;;;5040491;28;20049;-66
2023/09/18 07:13:11;;;;;;;0.00;0.00;;;18.50;92.80;;;;;;5035343;28;20114;-65
2023/09/18 07:15:37;;;;;;;0.00;0.00;;;18.30;92.80;;;;;;5041854;28;20526;-68
2023/09/18 07:18:03;;;;;;;0.00;0.00;;;18.40;92.80;;;;;;5034635;28;20060;-66
2023/09/18 07:20:28;;;;;;;0.10;0.10;;;18.40;92.80;;;;;;5059373;28;20472;-67
2023/09/18 07:22:55;;;;;;;0.03;0.03;;;18.50;92.80;;;;;;5028107;28;20072;-67
2023/09/18 07:25:21;;;;;;;0.00;0.00;;;18.50;92.80;;;;;;5060196;28;20049;-66
2023/09/18 07:27:46;;;;;;;0.10;0.10;;;18.50;92.80;;;;;;5029030;28;20110;-66
2023/09/18 07:30:17;;;;;;;0.00;0.00;;;18.50;92.90;;;;;;5046462;28;20079;-67
2023/09/18 07:32:43;;;;;;;0.00;0.00;;;18.40;92.80;;;;;;5015755;28;20140;-66
2023/09/18 07:35:09;;;;;;;0.43;0.43;;;18.50;92.90;;;;;;5060771;28;20048;-67
2023/09/18 07:37:35;;;;;;;0.00;0.00;;;18.50;92.90;;;;;;5032429;28;20056;-67
2023/09/18 07:40:05;;;;;;;0.20;0.20;;;18.50;92.90;;;;;;5044980;28;20049;-68
2023/09/18 07:42:31;;;;;;;0.00;0.00;;;18.50;92.90;;;;;;5032097;28;20555;-66
2023/09/18 07:44:57;;;;;;;0.00;0.00;;;18.50;92.90;;;;;;5048118;28;20041;-66
2023/09/18 07:47:22;;;;;;;0.00;0.00;;;18.60;92.90;;;;;;5063901;28;20052;-66
2023/09/18 07:49:48;;;;;;;0.00;0.00;;;18.50;92.80;;;;;;5048619;28;20045;-66
2023/09/18 07:52:15;;;;;;;0.00;0.00;;;18.50;92.90;;;;;;5049347;28;20049;-66
2023/09/18 07:54:40;;;;;;;0.00;0.00;;;18.60;92.90;;;;;;5046968;28;20109;-67
2023/09/18 07:57:09;;;;;;;0.00;0.00;;;18.50;92.90;;;;;;5048087;28;20065;-66
2023/09/18 07:59:36;;;;;;;0.13;0.13;;;18.60;92.90;;;;;;5047510;28;20049;-66
2023/09/18 08:02:02;;;;;;;0.00;0.00;;;18.60;93.00;;;;;;5034861;28;20210;-66
2023/09/18 08:04:27;;;;;;;0.00;0.00;;;18.60;93.00;;;;;;5055331;28;20510;-67
2023/09/18 08:06:53;;;;;;;0.00;0.00;;;18.60;93.00;;;;;;5036320;28;20052;-67
2023/09/18 08:09:18;;;;;;;0.00;0.00;;;18.60;92.90;;;;;;5040644;28;20194;-66
2023/09/18 08:11:44;;;;;;;0.00;0.00;;;18.60;92.90;;;;;;5038584;28;20410;-67
2023/09/18 08:14:10;;;;;;;0.00;0.00;;;18.60;92.80;;;;;;5035456;28;20052;-66
2023/09/18 08:16:38;;;;;;;0.00;0.00;;;18.60;93.00;;;;;;5039903;28;20052;-68
2023/09/18 08:19:04;;;;;;;0.00;0.00;;;18.70;93.00;;;;;;5038616;28;20183;-66
2023/09/18 08:21:29;;;;;;;0.00;0.00;;;18.70;93.20;;;;;;5040345;28;20087;-67
2023/09/18 08:23:55;;;;;;;0.00;0.00;;;18.80;93.30;;;;;;5035604;28;20057;-66
2023/09/18 08:26:22;;;;;;;0.00;0.00;;;18.80;93.30;;;;;;5051605;28;20375;-67
2023/09/18 08:28:48;;;;;;;0.00;0.00;;;18.80;93.30;;;;;;5033833;28;20520;-66
2023/09/18 08:31:16;;;;;;;0.00;0.00;;;18.90;93.20;;;;;;5045638;28;20037;-67
2023/09/18 08:33:42;;;;;;;0.00;0.00;;;18.90;93.00;;;;;;5037356;28;20144;-66
2023/09/18 08:36:08;;;;;;;0.00;0.00;;;19.00;93.00;;;;;;5051776;28;20044;-67
2023/09/18 08:38:33;;;;;;;2.03;0.65;;;19.00;92.90;;;;;;5032025;28;20076;-66
2023/09/18 08:40:59;;;;;;;0.00;0.00;;;19.00;92.90;;;;;;5050680;28;20154;-66
2023/09/18 08:43:26;;;;;;;0.00;0.00;;;19.10;93.10;;;;;;5067208;28;20098;-67
2023/09/18 08:46:01;;;;;;;0.00;0.00;;;19.10;93.30;;;;;;5044987;28;20442;-66
2023/09/18 08:48:34;;;;;;;0.00;0.00;;;19.10;93.40;;;;;;5049429;28;20053;-67
2023/09/18 08:51:03;;;;;;;0.00;0.00;;;19.20;93.50;;;;;;5059117;28;21455;-67
2023/09/18 08:53:30;;;;;;;0.00;0.00;;;19.20;93.40;;;;;;5037907;28;20121;-67
2023/09/18 08:55:58;;;;;;;0.47;0.43;;;19.20;93.30;;;;;;5049179;28;20405;-67
2023/09/18 08:58:26;;;;;;;0.00;0.00;;;19.30;93.40;;;;;;5032107;28;20076;-67
2023/09/18 09:00:52;;;;;;;0.00;0.00;;;19.40;93.50;;;;;;5052087;28;20098;-66
2023/09/18 09:03:18;;;;;;;0.10;0.10;;;19.40;93.50;;;;;;5047926;28;20060;-66
2023/09/18 09:05:44;;;;;;;0.08;0.08;;;19.40;93.40;;;;;;5067220;28;20049;-67
2023/09/18 09:08:09;;;;;;;0.00;0.00;;;19.50;93.50;;;;;;5036934;28;20449;-68
2023/09/18 09:10:35;;;;;;;1.08;0.68;;;19.50;93.50;;;;;;5045623;28;20061;-68
2023/09/18 09:13:02;;;;;;;0.00;0.00;;;19.50;93.40;;;;;;5040982;28;20041;-69
2023/09/18 09:15:47;;;;;;;0.00;0.00;;;19.50;93.40;;;;;;5044055;28;20080;-68
2023/09/18 09:18:17;;;;;;;0.00;0.00;;;19.60;93.20;;;;;;5027171;28;20085;-68
2023/09/18 09:20:59;;;;;;;0.00;0.00;;;19.50;93.20;;;;;;5064344;28;20045;-66
2023/09/18 09:23:26;;;;;;;0.00;0.00;;;19.60;93.50;;;;;;5046957;28;21695;-66
2023/09/18 09:25:53;;;;;;;0.10;0.10;;;19.60;93.40;;;;;;5067252;28;20170;-66
2023/09/18 09:28:30;;;;;;;0.00;0.00;;;19.70;93.40;;;;;;5055679;28;20120;-67
2023/09/18 09:31:05;;;;;;;0.00;0.00;;;19.70;93.40;;;;;;5043851;28;20048;-67
2023/09/18 09:33:31;;;;;;;0.00;0.00;;;19.90;93.60;;;;;;5052569;28;20032;-68
2023/09/18 09:35:58;;;;;;;0.00;0.00;;;20.00;93.50;;;;;;5059747;28;20249;-67
2023/09/18 09:38:34;;;;;;;0.00;0.00;;;20.00;93.10;;;;;;5038272;28;20124;-68
2023/09/18 09:41:00;;;;;;;0.03;0.03;;;20.10;93.10;;;;;;5004885;28;20068;-68
2023/09/18 09:43:27;;;;;;;0.00;0.00;;;20.10;93.10;;;;;;5032236;28;20059;-68
2023/09/18 09:46:02;;;;;;;0.10;0.10;;;20.10;93.10;;;;;;5038157;28;20115;-67
2023/09/18 09:48:32;;;;;;;0.00;0.00;;;20.10;93.00;;;;;;5047686;28;20107;-67
2023/09/18 09:51:00;;;;;;;0.00;0.00;;;20.10;92.90;;;;;;5050756;28;20060;-67
2023/09/18 09:53:47;;;;;;;0.00;0.00;;;20.10;92.80;;;;;;5050195;28;20052;-67
2023/09/18 09:56:14;;;;;;;0.28;0.28;;;20.10;92.80;;;;;;5049884;28;20049;-66
2023/09/18 09:58:43;;;;;;;0.28;0.28;;;20.10;92.80;;;;;;5065841;28;20086;-67
2023/09/18 10:01:18;;;;;;;1.17;0.75;;;20.10;92.70;;;;;;5050687;28;20510;-67
2023/09/18 10:03:45;;;;;;;0.00;0.00;;;20.00;92.60;;;;;;5058684;28;20485;-67
2023/09/18 10:06:13;;;;;;;0.00;0.00;;;20.10;92.40;;;;;;5039675;28;20119;-68
2023/09/18 10:08:40;;;;;;;0.10;0.10;;;20.10;92.20;;;;;;5043495;28;20041;-67
2023/09/18 10:11:10;;;;;;;0.00;0.00;;;20.10;92.00;;;;;;5036372;28;20505;-68
2023/09/18 10:13:57;;;;;;;0.00;0.00;;;20.20;92.00;;;;;;5043731;28;20061;-68
2023/09/18 10:16:27;;;;;;;0.00;0.00;;;20.20;91.60;;;;;;5053960;28;20509;-67
2023/09/18 10:19:24;;;;;;;0.10;0.10;;;20.20;91.20;;;;;;5039661;28;20596;-68
2023/09/18 10:22:13;;;;;;;0.25;0.25;;;20.20;90.80;;;;;;5043171;28;20060;-67
2023/09/18 10:24:41;;;;;;;0.00;0.00;;;20.30;90.70;;;;;;5033666;28;20587;-68
2023/09/18 10:27:09;;;;;;;0.00;0.00;;;20.40;90.20;;;;;;5037085;28;20132;-67
2023/09/18 10:29:36;;;;;;;0.00;0.00;;;20.30;90.30;;;;;;5036837;28;20494;-68
2023/09/18 10:32:09;;;;;;;0.00;0.00;;;20.40;90.00;;;;;;5044605;28;20053;-67
2023/09/18 10:34:36;;;;;;;0.00;0.00;;;20.40;89.90;;;;;;5036693;28;20041;-70
2023/09/18 10:37:09;;;;;;;0.00;0.00;;;20.50;89.80;;;;;;5042437;28;20059;-68
2023/09/18 10:39:39;;;;;;;0.00;0.00;;;20.60;89.70;;;;;;5047377;28;20533;-69
2023/09/18 10:42:08;;;;;;;0.00;0.00;;;20.60;89.40;;;;;;5045473;28;20064;-69
2023/09/18 10:44:34;;;;;;;0.00;0.00;;;20.60;89.10;;;;;;5037438;28;20049;-68
2023/09/18 10:47:05;;;;;;;0.00;0.00;;;20.70;89.10;;;;;;5042626;28;20049;-68
2023/09/18 10:49:31;;;;;;;0.17;0.17;;;20.90;89.10;;;;;;5065944;28;20044;-68
2023/09/18 10:51:58;;;;;;;0.20;0.20;;;20.90;87.80;;;;;;5049921;28;20287;-67
2023/09/18 10:54:26;;;;;;;0.10;0.10;;;20.90;88.00;;;;;;5066211;28;20041;-68
2023/09/18 10:56:52;;;;;;;0.00;0.00;;;20.90;87.90;;;;;;5048698;28;20136;-68
2023/09/18 10:59:18;;;;;;;0.00;0.00;;;20.90;87.90;;;;;;5066120;28;20425;-68
2023/09/18 11:01:44;;;;;;;0.00;0.00;;;21.00;88.20;;;;;;5050171;28;20056;-68
2023/09/18 11:04:10;;;;;;;0.20;0.20;;;21.10;88.10;;;;;;5040771;28;20561;-68
2023/09/18 11:06:54;;;;;;;0.22;0.22;;;21.10;87.80;;;;;;5027082;28;20114;-67
2023/09/18 11:09:22;;;;;;;0.10;0.10;;;21.10;86.70;;;;;;5039335;28;20154;-69
2023/09/18 11:12:03;;;;;;;0.00;0.00;;;21.10;86.70;;;;;;5035029;28;20064;-69
2023/09/18 11:14:54;;;;;;;0.00;0.00;;;21.20;85.20;;;;;;5057439;28;20558;-68
2023/09/18 11:17:57;;;;;;;0.00;0.00;;;21.40;86.10;;;;;;4985527;23;20046;-67
2023/09/18 11:20:39;;;;;;;0.00;0.00;;;21.40;85.90;;;;;;4951524;28;20436;-68
2023/09/18 11:23:20;;;;;;;0.00;0.00;;;21.30;83.30;;;;;;4954200;28;20046;-68
2023/09/18 11:25:53;;;;;;;0.00;0.00;;;21.20;83.40;;;;;;4938072;28;20066;-68
2023/09/18 11:28:26;;;;;;;0.10;0.10;;;21.10;83.00;;;;;;4958733;28;20054;-68
2023/09/18 11:31:06;;;;;;;0.00;0.00;;;21.00;83.90;;;;;;4931853;28;20042;-67
2023/09/18 11:33:44;;;;;;;0.00;0.00;;;20.80;83.90;;;;;;4958315;28;20054;-68
2023/09/18 11:36:34;;;;;;;0.00;0.00;;;20.80;84.90;;;;;;4951677;28;20055;-68
2023/09/18 11:39:06;;;;;;;0.00;0.00;;;20.80;85.40;;;;;;4957457;28;20057;-68
2023/09/18 11:41:38;;;;;;;0.20;0.17;;;20.90;85.20;;;;;;4959341;28;20038;-67
2023/09/18 11:47:07;;;;;;;0.00;0.00;;;21.10;85.20;;;;;;4952345;28;20096;-68
2023/09/18 11:49:54;;;;;;;0.00;0.00;;;21.30;84.70;;;;;;4955604;28;20051;-68
2023/09/18 11:52:23;;;;;;;0.00;0.00;;;21.50;84.10;;;;;;4940113;28;20129;-67
2023/09/18 11:54:49;;;;;;;1.23;1.13;;;21.50;83.60;;;;;;4958749;28;20047;-68
2023/09/18 11:57:15;;;;;;;0.00;0.00;;;21.60;83.10;;;;;;4952493;28;20086;-67
2023/09/18 11:59:42;;;;;;;0.20;0.20;;;21.70;83.50;;;;;;4949681;28;20082;-67
2023/09/18 12:02:28;;;;;;;0.80;0.80;;;21.60;82.40;;;;;;4949346;28;20057;-67
2023/09/18 12:04:56;;;;;;;0.47;0.47;;;21.70;82.80;;;;;;4945486;28;20123;-68
2023/09/18 12:07:23;;;;;;;0.10;0.10;;;21.70;81.20;;;;;;4928461;28;20086;-68
2023/09/18 12:09:49;;;;;;;1.45;1.27;;;21.90;82.30;;;;;;4936577;29;20036;-67
2023/09/18 12:12:17;;;;;;;0.00;0.00;;;21.90;79.50;;;;;;4930948;28;20084;-66
2023/09/18 12:14:44;;;;;;;0.00;0.00;;;22.00;80.00;;;;;;4939212;29;20058;-67
2023/09/18 12:17:14;;;;;;;1.65;1.55;;;22.00;80.50;;;;;;4938399;28;20059;-67
2023/09/18 12:19:51;;;;;;;0.00;0.00;;;22.00;79.80;;;;;;4958179;28;20126;-66
2023/09/18 12:22:29;;;;;;;0.10;0.10;;;22.00;80.00;;;;;;4948429;28;20077;-67
2023/09/18 12:25:16;;;;;;;0.00;0.00;;;22.00;79.90;;;;;;4958644;28;20035;-66
2023/09/18 12:27:42;;;;;;;0.05;0.05;;;22.00;79.50;;;;;;4952740;28;20054;-66
2023/09/18 12:30:08;;;;;;;0.25;0.25;;;22.10;78.30;;;;;;4956139;28;20031;-66
2023/09/18 12:32:38;;;;;;;0.10;0.10;;;22.10;76.90;;;;;;4952511;28;20047;-66
2023/09/18 12:35:06;;;;;;;0.47;0.47;;;22.10;77.10;;;;;;4956973;28;20046;-66
2023/09/18 12:37:40;;;;;;;0.00;0.00;;;22.10;76.40;;;;;;4950960;28;20066;-67
2023/09/18 12:40:11;;;;;;;0.00;0.00;;;22.20;76.60;;;;;;4955894;28;20039;-66
2023/09/18 12:42:40;;;;;;;0.63;0.22;;;22.20;76.10;;;;;;4945682;28;20051;-66
2023/09/18 12:45:07;;;;;;;0.00;0.00;;;22.20;75.90;;;;;;4957368;28;20098;-66
2023/09/18 12:47:33;;;;;;;0.00;0.00;;;22.30;76.60;;;;;;4947576;28;20053;-66
2023/09/18 12:50:03;;;;;;;0.00;0.00;;;22.30;76.20;;;;;;4959527;28;20129;-66
2023/09/18 12:52:29;;;;;;;0.00;0.00;;;22.30;75.20;;;;;;4958224;28;20495;-67
2023/09/18 12:54:56;;;;;;;0.00;0.00;;;22.40;75.20;;;;;;4956276;28;20038;-68
2023/09/18 12:57:21;;;;;;;0.03;0.03;;;22.40;73.90;;;;;;4948025;28;20061;-67